Time;durP1;ratioP1;P1;durP2;ratioP2;P2;SDS_P1;SDS_P2;PMS_P1;PMS_P2;Temp;Humidity;BMP_temperature;BMP_pressure;BME280_temperature;BME280_humidity;BME280_pressure;Samples;Min_cycle;Max_cycle;Signal;HPM_P1;HPM_P2
2023/10/15 00:00:16;;;;;;;0.10;0.10;;;9.40;99.90;;;;;;4959629;28;20180;-81
2023/10/15 00:02:43;;;;;;;0.10;0.10;;;9.30;99.90;;;;;;4960968;28;20580;-81
2023/10/15 00:05:25;;;;;;;0.00;0.00;;;9.30;99.90;;;;;;4960213;28;20211;-82
2023/10/15 00:07:51;;;;;;;0.10;0.10;;;9.30;99.90;;;;;;4959610;28;20196;-81
2023/10/15 00:10:21;;;;;;;0.10;0.10;;;9.30;99.90;;;;;;4976332;28;20240;-82
2023/10/15 00:12:49;;;;;;;0.10;0.10;;;9.30;99.90;;;;;;4957854;28;20279;-81
2023/10/15 00:15:19;;;;;;;0.10;0.10;;;9.30;99.90;;;;;;4959420;28;20224;-81
2023/10/15 00:17:50;;;;;;;0.10;0.10;;;9.30;99.90;;;;;;4957921;28;20180;-81
2023/10/15 00:20:18;;;;;;;0.10;0.10;;;9.30;99.90;;;;;;4976190;28;20187;-81
2023/10/15 00:22:44;;;;;;;0.00;0.00;;;9.20;99.90;;;;;;4962190;28;20188;-81
2023/10/15 00:25:13;;;;;;;0.10;0.10;;;9.20;99.90;;;;;;4960559;28;20208;-81
2023/10/15 00:27:42;;;;;;;0.00;0.00;;;9.10;99.90;;;;;;4959703;28;20712;-81
2023/10/15 00:30:19;;;;;;;0.10;0.10;;;9.10;99.90;;;;;;4975062;28;20185;-81
2023/10/15 00:32:45;;;;;;;0.00;0.00;;;9.10;99.90;;;;;;4960906;28;20271;-82
2023/10/15 00:35:13;;;;;;;0.00;0.00;;;9.00;99.90;;;;;;4959778;28;20248;-81
2023/10/15 00:37:51;;;;;;;0.00;0.00;;;9.00;99.90;;;;;;4958797;28;20251;-82
2023/10/15 00:40:19;;;;;;;0.00;0.00;;;8.90;99.90;;;;;;4974119;28;20183;-81
2023/10/15 00:42:45;;;;;;;0.10;0.10;;;8.90;99.90;;;;;;4957650;28;20182;-82
2023/10/15 00:45:14;;;;;;;0.10;0.10;;;8.90;99.90;;;;;;4959394;28;20208;-81
2023/10/15 00:47:41;;;;;;;0.10;0.10;;;8.90;99.90;;;;;;4960013;28;20188;-81
2023/10/15 00:50:08;;;;;;;0.10;0.10;;;8.90;99.90;;;;;;4963714;28;20234;-81
2023/10/15 00:52:43;;;;;;;0.10;0.10;;;8.90;99.90;;;;;;4964301;28;20217;-81
2023/10/15 00:55:16;;;;;;;0.00;0.00;;;8.90;99.90;;;;;;4958044;28;20247;-82
2023/10/15 00:57:45;;;;;;;0.10;0.10;;;8.90;99.90;;;;;;4959084;28;20181;-81
2023/10/15 01:02:58;;;;;;;0.10;0.10;;;8.90;99.90;;;;;;4959885;28;20563;-81
2023/10/15 01:05:28;;;;;;;0.10;0.10;;;8.80;99.90;;;;;;4958826;28;20236;-81
2023/10/15 01:07:57;;;;;;;0.10;0.10;;;8.80;99.90;;;;;;4959178;28;20699;-81
2023/10/15 01:13:21;;;;;;;0.10;0.10;;;8.70;99.90;;;;;;4963508;28;20293;-81
2023/10/15 01:15:58;;;;;;;0.10;0.10;;;8.70;99.90;;;;;;4962105;28;20264;-81
2023/10/15 01:18:24;;;;;;;0.10;0.10;;;8.60;99.90;;;;;;4962954;28;20168;-81
2023/10/15 01:20:49;;;;;;;0.10;0.10;;;8.60;99.90;;;;;;4961937;28;20215;-81
2023/10/15 01:23:31;;;;;;;0.10;0.10;;;8.50;99.90;;;;;;4964831;28;20184;-81
2023/10/15 01:25:59;;;;;;;0.10;0.10;;;8.50;99.90;;;;;;4961896;28;20216;-81
2023/10/15 01:28:36;;;;;;;0.10;0.10;;;8.40;99.90;;;;;;4961239;28;20184;-81
2023/10/15 01:31:05;;;;;;;0.00;0.00;;;8.40;99.90;;;;;;4963276;28;20535;-81
2023/10/15 01:33:46;;;;;;;0.10;0.10;;;8.40;99.90;;;;;;4962866;28;20292;-81
2023/10/15 01:36:18;;;;;;;0.10;0.10;;;8.40;99.90;;;;;;4964653;28;20205;-81
2023/10/15 01:38:44;;;;;;;0.10;0.10;;;8.30;99.90;;;;;;4964212;28;20186;-81
2023/10/15 01:41:13;;;;;;;0.10;0.10;;;8.30;99.90;;;;;;4960106;28;20187;-81
2023/10/15 01:43:40;;;;;;;0.00;0.00;;;8.30;99.90;;;;;;4964899;28;20185;-81
2023/10/15 01:46:10;;;;;;;0.10;0.10;;;8.20;99.90;;;;;;4961883;28;20211;-81
2023/10/15 01:48:39;;;;;;;0.10;0.10;;;8.20;99.90;;;;;;4964177;28;20185;-82
2023/10/15 01:51:06;;;;;;;0.10;0.10;;;8.20;99.90;;;;;;4962901;28;20189;-82
2023/10/15 01:53:37;;;;;;;0.10;0.10;;;8.20;99.90;;;;;;4979265;28;20224;-81
2023/10/15 01:56:03;;;;;;;0.00;0.00;;;8.20;99.90;;;;;;4963290;28;20216;-82
2023/10/15 01:58:32;;;;;;;0.10;0.10;;;8.20;99.90;;;;;;4965230;28;20176;-82
2023/10/15 02:01:09;;;;;;;0.00;0.00;;;8.20;99.90;;;;;;4981701;28;20208;-82
2023/10/15 02:03:37;;;;;;;0.10;0.10;;;8.20;99.90;;;;;;4980325;28;20238;-82
2023/10/15 02:06:06;;;;;;;0.10;0.10;;;8.20;99.90;;;;;;4982229;28;20203;-82
2023/10/15 02:08:33;;;;;;;0.10;0.10;;;8.30;99.90;;;;;;4984532;28;20171;-82
2023/10/15 02:11:08;;;;;;;0.03;0.03;;;8.30;99.90;;;;;;4978859;28;20209;-81
2023/10/15 02:13:37;;;;;;;0.10;0.10;;;8.40;99.90;;;;;;4974419;28;20219;-81
2023/10/15 02:16:08;;;;;;;0.10;0.10;;;8.40;99.90;;;;;;4972067;28;20212;-80
2023/10/15 02:18:35;;;;;;;0.00;0.00;;;8.30;99.90;;;;;;4966492;28;20182;-80
2023/10/15 02:21:01;;;;;;;0.10;0.10;;;8.40;99.90;;;;;;4963511;28;20189;-81
2023/10/15 02:23:27;;;;;;;0.10;0.10;;;8.40;99.90;;;;;;4963526;28;20191;-81
2023/10/15 02:25:57;;;;;;;0.00;0.00;;;8.40;99.90;;;;;;4962685;28;20227;-81
2023/10/15 02:28:30;;;;;;;0.07;0.07;;;8.40;99.90;;;;;;4962378;28;20184;-81
2023/10/15 02:33:29;;;;;;;0.10;0.10;;;8.50;99.90;;;;;;4965156;28;20225;-81
2023/10/15 02:36:06;;;;;;;0.00;0.00;;;8.50;99.90;;;;;;4963549;28;20201;-81
2023/10/15 02:38:48;;;;;;;0.07;0.07;;;8.50;99.90;;;;;;4962182;28;20210;-80
2023/10/15 02:41:18;;;;;;;0.10;0.10;;;8.50;99.90;;;;;;4960686;28;20192;-81
2023/10/15 02:43:48;;;;;;;0.03;0.03;;;8.50;99.90;;;;;;4961831;28;20193;-80
2023/10/15 02:46:23;;;;;;;0.10;0.10;;;8.50;99.90;;;;;;4962376;28;20241;-81
2023/10/15 02:48:53;;;;;;;0.10;0.10;;;8.40;99.90;;;;;;4963030;28;20198;-80
2023/10/15 02:51:23;;;;;;;0.10;0.10;;;8.40;99.90;;;;;;4962671;28;20576;-80
2023/10/15 02:53:53;;;;;;;0.10;0.10;;;8.40;99.90;;;;;;4962634;28;20262;-80
2023/10/15 02:56:20;;;;;;;0.10;0.10;;;8.30;99.90;;;;;;4963693;28;20207;-81
2023/10/15 02:58:46;;;;;;;0.07;0.07;;;8.30;99.90;;;;;;4980301;28;20195;-82
2023/10/15 03:01:19;;;;;;;0.10;0.10;;;8.30;99.90;;;;;;4966439;28;20196;-81
2023/10/15 03:03:54;;;;;;;0.10;0.10;;;8.30;99.90;;;;;;4964768;28;20207;-81
2023/10/15 03:06:28;;;;;;;0.10;0.10;;;8.20;99.90;;;;;;4962351;28;20211;-80
2023/10/15 03:08:53;;;;;;;0.00;0.00;;;8.30;99.90;;;;;;4964511;28;20190;-80
2023/10/15 03:11:20;;;;;;;0.10;0.10;;;8.30;99.90;;;;;;4964067;28;20189;-81
2023/10/15 03:13:53;;;;;;;0.10;0.10;;;8.30;99.90;;;;;;4964716;28;20209;-81
2023/10/15 03:16:24;;;;;;;0.00;0.00;;;8.30;99.90;;;;;;4963673;28;20768;-81
2023/10/15 03:18:50;;;;;;;0.10;0.10;;;8.30;99.90;;;;;;4962909;28;20181;-81
2023/10/15 03:21:26;;;;;;;0.10;0.10;;;8.30;99.90;;;;;;4965127;28;20229;-81
2023/10/15 03:23:56;;;;;;;0.00;0.00;;;8.30;99.90;;;;;;4964027;28;20191;-81
2023/10/15 03:26:30;;;;;;;0.10;0.10;;;8.10;99.90;;;;;;4963329;28;20269;-81
2023/10/15 03:28:58;;;;;;;0.10;0.10;;;8.20;99.90;;;;;;4964177;28;20213;-82
2023/10/15 03:31:27;;;;;;;0.10;0.10;;;8.10;99.90;;;;;;4961998;28;20188;-82
2023/10/15 03:39:24;;;;;;;0.00;0.00;;;8.10;99.90;;;;;;4964836;28;20183;-81
2023/10/15 03:42:09;;;;;;;0.10;0.10;;;8.00;99.90;;;;;;4963370;28;20172;-81
2023/10/15 03:44:45;;;;;;;0.10;0.10;;;8.00;99.90;;;;;;4961881;28;20197;-80
2023/10/15 03:47:22;;;;;;;0.10;0.10;;;8.00;99.90;;;;;;4963522;28;20183;-80
2023/10/15 03:49:47;;;;;;;0.00;0.00;;;8.00;99.90;;;;;;4961246;28;20630;-81
2023/10/15 03:52:22;;;;;;;0.10;0.10;;;8.00;99.90;;;;;;4961327;28;20266;-81
2023/10/15 03:54:49;;;;;;;0.10;0.10;;;8.00;99.90;;;;;;4962320;28;20215;-80
2023/10/15 03:57:18;;;;;;;0.10;0.10;;;8.10;99.90;;;;;;4962363;28;20324;-81
2023/10/15 03:59:51;;;;;;;0.10;0.10;;;8.00;99.90;;;;;;4960767;28;20188;-80
2023/10/15 04:02:23;;;;;;;0.10;0.10;;;8.00;99.90;;;;;;4960960;28;20177;-81
2023/10/15 04:05:00;;;;;;;0.10;0.10;;;8.10;99.90;;;;;;4962961;28;20603;-81
2023/10/15 04:07:27;;;;;;;0.10;0.10;;;8.00;99.90;;;;;;4966600;28;20641;-82
2023/10/15 04:09:53;;;;;;;0.10;0.10;;;8.00;99.90;;;;;;4967651;28;20179;-81
2023/10/15 04:12:19;;;;;;;0.10;0.10;;;8.00;99.90;;;;;;4963102;28;20205;-82
2023/10/15 04:14:46;;;;;;;0.10;0.10;;;8.00;99.90;;;;;;4961323;28;20209;-81
2023/10/15 04:17:12;;;;;;;0.00;0.00;;;8.00;99.90;;;;;;4961301;28;20191;-81
2023/10/15 04:19:37;;;;;;;0.10;0.10;;;7.90;99.90;;;;;;4961656;28;20195;-80
2023/10/15 04:22:15;;;;;;;0.10;0.10;;;7.90;99.90;;;;;;4962430;28;20567;-80
2023/10/15 04:24:46;;;;;;;0.10;0.10;;;7.90;99.90;;;;;;4960257;28;20273;-81
2023/10/15 04:27:15;;;;;;;0.10;0.10;;;7.90;99.90;;;;;;4962073;28;20179;-82
2023/10/15 04:29:52;;;;;;;0.00;0.00;;;7.90;99.90;;;;;;4963544;28;20189;-81
2023/10/15 04:34:54;;;;;;;0.10;0.10;;;7.80;99.90;;;;;;4961055;28;20223;-81
2023/10/15 04:37:20;;;;;;;0.87;0.87;;;7.80;99.90;;;;;;4960965;28;20188;-81
2023/10/15 04:39:54;;;;;;;0.10;0.10;;;7.80;99.90;;;;;;4964529;28;20181;-82
2023/10/15 04:42:36;;;;;;;0.10;0.10;;;7.80;99.90;;;;;;4977209;28;20176;-82
2023/10/15 04:45:02;;;;;;;0.10;0.10;;;7.80;99.90;;;;;;4957592;28;20213;-82
2023/10/15 04:47:37;;;;;;;0.10;0.10;;;7.70;99.90;;;;;;4961288;28;20569;-81
2023/10/15 04:50:14;;;;;;;0.10;0.10;;;7.70;99.90;;;;;;4960514;28;20206;-81
2023/10/15 04:52:41;;;;;;;0.10;0.10;;;7.70;99.90;;;;;;4959589;28;20250;-81
2023/10/15 04:55:07;;;;;;;0.10;0.10;;;7.60;99.90;;;;;;4976261;28;20217;-81
2023/10/15 04:57:33;;;;;;;0.10;0.10;;;7.70;99.90;;;;;;4960265;28;20826;-81
2023/10/15 04:59:59;;;;;;;0.10;0.10;;;7.70;99.90;;;;;;4956896;28;20246;-82
2023/10/15 05:02:24;;;;;;;0.10;0.10;;;7.70;99.90;;;;;;4960665;28;20629;-81
2023/10/15 05:04:50;;;;;;;0.10;0.10;;;7.70;99.90;;;;;;4961728;28;20560;-81
2023/10/15 05:07:15;;;;;;;0.10;0.10;;;7.70;99.90;;;;;;4960490;28;20213;-80
2023/10/15 05:09:44;;;;;;;0.00;0.00;;;7.60;99.90;;;;;;4960080;28;20192;-81
2023/10/15 05:12:10;;;;;;;0.00;0.00;;;7.60;99.90;;;;;;4963866;28;20275;-80
2023/10/15 05:14:36;;;;;;;0.10;0.10;;;7.60;99.90;;;;;;4958336;28;20209;-81
2023/10/15 05:17:01;;;;;;;0.10;0.10;;;7.60;99.90;;;;;;4962003;28;20195;-81
2023/10/15 05:19:27;;;;;;;0.10;0.10;;;7.60;99.90;;;;;;4962761;28;20181;-82
2023/10/15 05:21:53;;;;;;;0.00;0.00;;;7.70;99.90;;;;;;4958120;28;20777;-81
2023/10/15 05:24:18;;;;;;;0.10;0.10;;;7.70;99.90;;;;;;4960876;28;20198;-81
2023/10/15 05:26:47;;;;;;;0.00;0.00;;;7.60;99.90;;;;;;4956927;28;20679;-80
2023/10/15 05:29:15;;;;;;;0.10;0.10;;;7.60;99.90;;;;;;4959624;28;20192;-81
2023/10/15 05:31:41;;;;;;;0.10;0.10;;;7.60;99.90;;;;;;4959642;28;20191;-80
2023/10/15 05:34:08;;;;;;;0.00;0.00;;;7.60;99.90;;;;;;4960848;28;20248;-81
2023/10/15 05:36:35;;;;;;;0.00;0.00;;;7.60;99.90;;;;;;4959308;28;20698;-81
2023/10/15 05:39:02;;;;;;;0.10;0.10;;;7.50;99.90;;;;;;4957672;28;20192;-81
2023/10/15 05:41:31;;;;;;;0.10;0.10;;;7.40;99.90;;;;;;4959840;28;20192;-81
2023/10/15 05:43:57;;;;;;;0.00;0.00;;;7.50;99.90;;;;;;4958749;28;20183;-81
2023/10/15 05:46:22;;;;;;;0.03;0.03;;;7.50;99.90;;;;;;4960180;28;20209;-81
2023/10/15 05:48:48;;;;;;;0.10;0.10;;;7.50;99.90;;;;;;4961869;28;20197;-81
2023/10/15 05:51:13;;;;;;;0.00;0.00;;;7.50;99.90;;;;;;4962612;28;20188;-81
2023/10/15 05:53:39;;;;;;;0.10;0.10;;;7.50;99.90;;;;;;4961448;28;20211;-81
2023/10/15 05:56:05;;;;;;;0.10;0.10;;;7.50;99.90;;;;;;4960329;28;20212;-81
2023/10/15 05:58:31;;;;;;;0.00;0.00;;;7.50;99.90;;;;;;4963288;28;20203;-81
2023/10/15 06:00:57;;;;;;;0.10;0.10;;;7.60;99.90;;;;;;4964843;28;20192;-81
2023/10/15 06:03:23;;;;;;;0.03;0.03;;;7.70;99.90;;;;;;4964478;28;20191;-81
2023/10/15 06:05:48;;;;;;;0.10;0.10;;;7.70;99.90;;;;;;4963093;28;20209;-81
2023/10/15 06:08:14;;;;;;;0.10;0.10;;;7.70;99.90;;;;;;4964343;28;20547;-81
2023/10/15 06:10:39;;;;;;;0.00;0.00;;;7.80;99.90;;;;;;4963675;28;20206;-81
2023/10/15 06:13:05;;;;;;;0.10;0.10;;;7.80;99.90;;;;;;4961939;28;20177;-81
2023/10/15 06:15:31;;;;;;;0.10;0.10;;;7.90;99.90;;;;;;4961626;28;20220;-81
2023/10/15 06:17:57;;;;;;;0.10;0.10;;;7.90;99.90;;;;;;4961775;28;20184;-81
2023/10/15 06:20:24;;;;;;;0.10;0.10;;;8.00;99.90;;;;;;4962511;28;20645;-80
2023/10/15 06:22:55;;;;;;;0.10;0.10;;;8.10;99.90;;;;;;4960368;28;20199;-81
2023/10/15 06:25:21;;;;;;;0.10;0.10;;;8.10;99.90;;;;;;4964406;28;20207;-81
2023/10/15 06:27:46;;;;;;;0.10;0.10;;;8.10;99.90;;;;;;4965032;28;20185;-81
2023/10/15 06:30:16;;;;;;;0.00;0.00;;;8.10;99.90;;;;;;4962994;28;20293;-80
2023/10/15 06:32:43;;;;;;;0.00;0.00;;;8.10;99.90;;;;;;4964471;28;20195;-81
2023/10/15 06:35:09;;;;;;;0.10;0.10;;;8.20;99.90;;;;;;4963546;28;20208;-82
2023/10/15 06:37:38;;;;;;;0.00;0.00;;;8.20;99.90;;;;;;4964153;28;20214;-81
2023/10/15 06:40:08;;;;;;;0.00;0.00;;;8.30;99.90;;;;;;4967067;28;20182;-81
2023/10/15 06:42:35;;;;;;;0.10;0.10;;;8.40;99.90;;;;;;4964422;28;20244;-81
2023/10/15 06:45:02;;;;;;;0.10;0.10;;;8.40;99.90;;;;;;4965085;28;20280;-81
2023/10/15 06:47:29;;;;;;;0.10;0.10;;;8.50;99.90;;;;;;4962158;28;20234;-81
2023/10/15 06:49:55;;;;;;;0.10;0.10;;;8.50;99.90;;;;;;4963832;28;20207;-82
2023/10/15 06:52:21;;;;;;;0.07;0.07;;;8.50;99.90;;;;;;4963248;28;20629;-80
2023/10/15 06:54:47;;;;;;;0.00;0.00;;;8.60;99.90;;;;;;4957774;28;20212;-80
2023/10/15 06:57:16;;;;;;;0.10;0.10;;;8.60;99.90;;;;;;4959154;28;20247;-80
2023/10/15 06:59:42;;;;;;;0.10;0.10;;;8.70;99.90;;;;;;4963492;28;20684;-81
2023/10/15 07:02:08;;;;;;;0.10;0.10;;;8.70;99.90;;;;;;4961264;28;20231;-81
2023/10/15 07:04:34;;;;;;;0.10;0.10;;;8.90;99.90;;;;;;4965696;28;20197;-81
2023/10/15 07:06:59;;;;;;;0.10;0.10;;;8.80;99.90;;;;;;4961038;28;20252;-80
2023/10/15 07:09:26;;;;;;;0.10;0.10;;;8.90;99.90;;;;;;4963354;28;20207;-81
2023/10/15 07:11:51;;;;;;;0.03;0.03;;;9.00;99.90;;;;;;4963893;28;20618;-81
2023/10/15 07:14:17;;;;;;;0.10;0.10;;;9.00;99.90;;;;;;4966328;28;20209;-81
2023/10/15 07:16:42;;;;;;;0.10;0.10;;;9.10;99.90;;;;;;4962518;28;20229;-81
2023/10/15 07:19:08;;;;;;;0.10;0.10;;;9.20;99.90;;;;;;4963148;28;20275;-80
2023/10/15 07:21:33;;;;;;;0.00;0.00;;;9.20;99.90;;;;;;4963314;28;20628;-80
2023/10/15 07:23:59;;;;;;;0.00;0.00;;;9.30;99.90;;;;;;4956791;28;20328;-80
2023/10/15 07:26:24;;;;;;;0.10;0.10;;;9.30;99.90;;;;;;4962546;28;20214;-80
2023/10/15 07:28:50;;;;;;;0.00;0.00;;;9.30;99.90;;;;;;4963104;28;20225;-80
2023/10/15 07:31:16;;;;;;;0.10;0.10;;;9.30;99.90;;;;;;4964100;28;20231;-81
2023/10/15 07:33:42;;;;;;;0.10;0.10;;;9.40;99.90;;;;;;4965832;28;20216;-81
2023/10/15 07:36:07;;;;;;;0.00;0.00;;;9.50;99.90;;;;;;4963999;28;20231;-81
2023/10/15 07:38:36;;;;;;;0.10;0.10;;;9.60;99.90;;;;;;4960473;28;20173;-81
2023/10/15 07:41:01;;;;;;;0.10;0.10;;;9.70;99.90;;;;;;4961595;28;20199;-80
2023/10/15 07:43:27;;;;;;;0.10;0.10;;;9.80;99.90;;;;;;4961062;28;20702;-80
2023/10/15 07:45:52;;;;;;;0.00;0.00;;;10.00;99.90;;;;;;4965425;28;20204;-80
2023/10/15 07:48:18;;;;;;;0.10;0.10;;;10.10;99.90;;;;;;4963860;28;20191;-80
2023/10/15 07:50:45;;;;;;;0.10;0.10;;;10.20;99.90;;;;;;4961908;28;20196;-81
2023/10/15 07:53:11;;;;;;;0.00;0.00;;;10.30;99.90;;;;;;4960496;28;20216;-80
2023/10/15 07:55:37;;;;;;;0.10;0.10;;;10.40;99.90;;;;;;4961932;28;20220;-80
2023/10/15 07:58:03;;;;;;;0.10;0.10;;;10.50;99.90;;;;;;4974136;28;20192;-81
2023/10/15 08:00:33;;;;;;;0.03;0.03;;;10.30;99.90;;;;;;4961077;28;20216;-80
2023/10/15 08:03:00;;;;;;;0.10;0.10;;;10.30;99.90;;;;;;4962712;28;20205;-81
2023/10/15 08:05:26;;;;;;;0.10;0.10;;;10.20;99.90;;;;;;4964894;28;20250;-81
2023/10/15 08:07:52;;;;;;;0.10;0.10;;;10.10;99.90;;;;;;4961234;28;20188;-80
2023/10/15 08:10:22;;;;;;;0.10;0.10;;;10.10;99.90;;;;;;4960492;28;20232;-81
2023/10/15 08:12:51;;;;;;;0.10;0.10;;;10.10;99.90;;;;;;4956655;28;20814;-81
2023/10/15 08:15:17;;;;;;;0.07;0.07;;;10.30;99.90;;;;;;4963628;28;20295;-81
2023/10/15 08:17:43;;;;;;;0.10;0.10;;;10.20;99.90;;;;;;4964620;28;20625;-80
2023/10/15 08:20:09;;;;;;;0.63;0.63;;;10.20;99.90;;;;;;4960205;28;20219;-81
2023/10/15 08:22:44;;;;;;;0.10;0.10;;;10.30;99.90;;;;;;4962393;28;20185;-82
2023/10/15 08:25:13;;;;;;;0.03;0.03;;;10.50;99.90;;;;;;4965914;28;20287;-82
2023/10/15 08:27:44;;;;;;;0.10;0.10;;;10.80;99.90;;;;;;4973304;28;20196;-81
2023/10/15 08:30:12;;;;;;;0.00;0.00;;;11.00;99.90;;;;;;4962142;28;20203;-81
2023/10/15 08:32:44;;;;;;;0.10;0.10;;;11.30;99.90;;;;;;4971343;28;20199;-82
2023/10/15 08:35:13;;;;;;;0.10;0.10;;;11.50;99.90;;;;;;4967014;28;20252;-81
2023/10/15 08:37:42;;;;;;;0.10;0.10;;;11.70;99.90;;;;;;4970099;28;20188;-82
2023/10/15 08:40:15;;;;;;;0.10;0.10;;;11.80;99.90;;;;;;4968747;28;20188;-81
2023/10/15 08:43:01;;;;;;;0.03;0.03;;;11.90;99.90;;;;;;4975631;28;20213;-81
2023/10/15 08:45:29;;;;;;;0.10;0.10;;;12.20;99.90;;;;;;4970804;28;20216;-81
2023/10/15 08:47:56;;;;;;;0.10;0.10;;;12.40;99.90;;;;;;4961752;28;20302;-81
2023/10/15 08:50:22;;;;;;;0.03;0.03;;;12.20;99.90;;;;;;4963023;28;20263;-81
2023/10/15 08:52:52;;;;;;;0.10;0.10;;;12.20;99.90;;;;;;4958423;28;20289;-81
2023/10/15 08:55:22;;;;;;;0.10;0.10;;;12.00;99.90;;;;;;4978044;28;20217;-81
2023/10/15 08:57:54;;;;;;;0.10;0.10;;;12.00;99.90;;;;;;4972533;28;20223;-81
2023/10/15 09:00:25;;;;;;;0.10;0.10;;;12.10;99.90;;;;;;4962273;28;20177;-81
2023/10/15 09:02:56;;;;;;;0.10;0.10;;;12.10;99.90;;;;;;4963205;28;20200;-81
2023/10/15 09:05:22;;;;;;;0.10;0.10;;;11.90;99.90;;;;;;4962738;28;20210;-81
2023/10/15 09:07:50;;;;;;;0.10;0.10;;;11.60;99.90;;;;;;4961695;28;20197;-81
2023/10/15 09:10:17;;;;;;;0.10;0.10;;;11.70;99.90;;;;;;4960971;28;20233;-81
2023/10/15 09:12:42;;;;;;;0.10;0.10;;;11.80;99.90;;;;;;4958545;28;20285;-82
2023/10/15 09:15:17;;;;;;;0.07;0.07;;;11.90;99.90;;;;;;4965013;28;20232;-81
2023/10/15 09:17:55;;;;;;;0.10;0.10;;;11.80;99.90;;;;;;4966730;28;20255;-81
2023/10/15 09:20:32;;;;;;;0.10;0.10;;;12.40;99.90;;;;;;4961983;28;20190;-81
2023/10/15 09:23:00;;;;;;;0.10;0.10;;;12.70;99.90;;;;;;4960723;28;20227;-81
2023/10/15 09:25:26;;;;;;;0.10;0.10;;;13.30;99.90;;;;;;4963778;28;20547;-81
2023/10/15 09:27:56;;;;;;;0.10;0.10;;;13.60;99.90;;;;;;4962134;28;20219;-81
2023/10/15 09:30:23;;;;;;;0.10;0.10;;;13.70;99.90;;;;;;4960492;28;20197;-81
2023/10/15 09:32:49;;;;;;;0.10;0.10;;;14.10;99.90;;;;;;4965864;28;20220;-81
2023/10/15 09:35:15;;;;;;;0.10;0.10;;;13.90;99.90;;;;;;4968324;28;20208;-81
2023/10/15 09:37:41;;;;;;;0.00;0.00;;;13.30;99.90;;;;;;4963692;28;20192;-81
2023/10/15 09:40:11;;;;;;;0.10;0.10;;;13.40;99.90;;;;;;4966007;28;20824;-82
2023/10/15 09:42:38;;;;;;;0.10;0.10;;;13.40;99.90;;;;;;4978595;28;20196;-82
2023/10/15 09:45:06;;;;;;;0.10;0.10;;;13.30;99.90;;;;;;4965262;28;20606;-82
2023/10/15 09:47:39;;;;;;;0.10;0.10;;;13.20;99.90;;;;;;4965510;28;20317;-82
2023/10/15 09:50:09;;;;;;;0.10;0.10;;;13.40;99.90;;;;;;4965735;28;20212;-81
2023/10/15 09:52:36;;;;;;;0.10;0.10;;;13.40;99.90;;;;;;4965334;28;20181;-80
2023/10/15 09:55:11;;;;;;;0.10;0.10;;;13.40;99.90;;;;;;4963036;28;20217;-81
2023/10/15 09:57:38;;;;;;;0.10;0.10;;;13.80;99.90;;;;;;4967887;28;20207;-81
2023/10/15 10:00:10;;;;;;;0.10;0.10;;;14.00;99.90;;;;;;4964570;28;20188;-82
2023/10/15 10:02:46;;;;;;;0.10;0.10;;;13.80;99.90;;;;;;4964910;28;20206;-83
2023/10/15 10:05:44;;;;;;;0.10;0.10;;;14.00;99.90;;;;;;4965011;28;21029;-81
2023/10/15 10:08:43;;;;;;;0.00;0.00;;;13.70;99.90;;;;;;4960217;28;20224;-81
2023/10/15 10:11:23;;;;;;;0.10;0.10;;;14.20;99.90;;;;;;4963710;28;20196;-81
2023/10/15 10:14:11;;;;;;;0.10;0.10;;;14.00;99.90;;;;;;4964322;28;20288;-81
2023/10/15 10:16:37;;;;;;;0.10;0.10;;;14.10;99.90;;;;;;4965086;28;20233;-81
2023/10/15 10:19:03;;;;;;;0.10;0.10;;;14.10;99.90;;;;;;4984147;28;20187;-81
2023/10/15 10:21:30;;;;;;;0.10;0.10;;;14.00;99.90;;;;;;4964965;28;20233;-81
2023/10/15 10:23:58;;;;;;;0.10;0.10;;;13.80;99.90;;;;;;4959317;28;20560;-81
2023/10/15 10:26:29;;;;;;;0.10;0.10;;;13.30;99.90;;;;;;4966001;28;20208;-81
2023/10/15 10:28:57;;;;;;;0.00;0.00;;;13.40;99.90;;;;;;4979766;28;20229;-81
2023/10/15 10:31:22;;;;;;;0.10;0.10;;;14.00;99.90;;;;;;4965080;28;20281;-81
2023/10/15 10:33:50;;;;;;;0.10;0.10;;;14.00;99.90;;;;;;4964996;28;20367;-81
2023/10/15 10:36:21;;;;;;;0.10;0.10;;;13.80;99.90;;;;;;4963214;28;20201;-82
2023/10/15 10:39:10;;;;;;;0.10;0.10;;;14.20;99.90;;;;;;4963663;28;20214;-82
2023/10/15 10:41:40;;;;;;;0.10;0.10;;;14.30;99.90;;;;;;4963362;28;20194;-82
2023/10/15 10:44:08;;;;;;;0.10;0.10;;;14.10;99.90;;;;;;4968515;28;20782;-83
2023/10/15 10:46:41;;;;;;;0.10;0.10;;;13.90;99.90;;;;;;4965107;28;20725;-82
2023/10/15 10:49:18;;;;;;;0.10;0.10;;;13.80;99.90;;;;;;4983015;28;20237;-82
2023/10/15 10:52:04;;;;;;;0.10;0.10;;;14.00;99.90;;;;;;4964982;28;20740;-82
2023/10/15 10:54:30;;;;;;;0.10;0.10;;;13.90;99.90;;;;;;4970243;28;20674;-83
2023/10/15 10:56:58;;;;;;;0.10;0.10;;;14.20;99.90;;;;;;4964359;28;20299;-82
2023/10/15 10:59:24;;;;;;;0.10;0.10;;;14.60;99.90;;;;;;4963914;28;20184;-82
2023/10/15 11:01:50;;;;;;;0.10;0.10;;;15.00;99.90;;;;;;4966019;28;20559;-82
2023/10/15 11:04:16;;;;;;;0.10;0.10;;;14.80;99.90;;;;;;4965148;28;20235;-83
2023/10/15 11:06:45;;;;;;;0.10;0.10;;;15.30;99.90;;;;;;4967741;28;20639;-82
2023/10/15 11:09:22;;;;;;;0.10;0.10;;;15.50;99.90;;;;;;4962756;28;20182;-83
2023/10/15 11:11:52;;;;;;;0.10;0.10;;;15.40;99.90;;;;;;4960752;28;20184;-81
2023/10/15 11:14:25;;;;;;;0.10;0.10;;;15.70;99.90;;;;;;4971468;28;20212;-82
2023/10/15 11:16:57;;;;;;;0.10;0.10;;;15.40;99.90;;;;;;4962590;28;20239;-81
2023/10/15 11:19:25;;;;;;;0.10;0.10;;;14.90;99.90;;;;;;4962621;28;20199;-82
2023/10/15 11:21:52;;;;;;;0.10;0.10;;;14.50;99.90;;;;;;4978095;28;20180;-81
2023/10/15 11:24:20;;;;;;;0.10;0.10;;;14.20;99.90;;;;;;4963520;28;20219;-81
2023/10/15 11:26:46;;;;;;;0.10;0.10;;;13.30;99.90;;;;;;4962683;28;20243;-81
2023/10/15 11:29:13;;;;;;;0.10;0.10;;;11.90;99.90;;;;;;4962364;28;20192;-81
2023/10/15 11:31:45;;;;;;;0.10;0.10;;;11.10;99.90;;;;;;4962340;28;20187;-81
2023/10/15 11:34:21;;;;;;;0.10;0.10;;;10.10;99.90;;;;;;4961091;28;20197;-81
2023/10/15 11:36:48;;;;;;;0.10;0.10;;;10.00;99.90;;;;;;4961169;28;20762;-81
2023/10/15 11:39:19;;;;;;;0.10;0.10;;;9.80;99.90;;;;;;4961062;28;20181;-81
2023/10/15 11:41:52;;;;;;;0.03;0.03;;;9.70;99.90;;;;;;4962829;28;20656;-80
2023/10/15 11:45:16;;;;;;;0.10;0.10;;;10.00;99.90;;;;;;4964229;28;20184;-81
2023/10/15 11:47:11;;;;;;;0.10;0.10;;;9.60;99.90;;;;;;4966126;28;20231;-81
2023/10/15 11:49:44;;;;;;;0.10;0.10;;;9.70;99.90;;;;;;4962721;28;20184;-81
2023/10/15 11:52:18;;;;;;;0.10;0.10;;;9.50;99.90;;;;;;4962696;28;20200;-81
2023/10/15 11:54:49;;;;;;;0.10;0.10;;;9.80;99.90;;;;;;4961704;28;20612;-81
2023/10/15 11:57:20;;;;;;;0.10;0.10;;;10.00;99.90;;;;;;4961444;28;20226;-80
2023/10/15 11:59:48;;;;;;;0.10;0.10;;;10.00;99.90;;;;;;4963100;28;20195;-81
2023/10/15 12:02:14;;;;;;;0.10;0.10;;;10.10;99.90;;;;;;4962407;28;20268;-81
2023/10/15 12:04:40;;;;;;;0.10;0.10;;;10.30;99.90;;;;;;4959991;28;20194;-81
2023/10/15 12:07:15;;;;;;;0.10;0.10;;;10.20;99.90;;;;;;4961860;28;20281;-81
2023/10/15 12:09:47;;;;;;;0.10;0.10;;;10.20;99.90;;;;;;4961493;28;20219;-80
2023/10/15 12:12:13;;;;;;;0.10;0.10;;;10.20;99.90;;;;;;4963215;28;20204;-80
2023/10/15 12:14:38;;;;;;;0.10;0.10;;;10.50;99.90;;;;;;4974499;28;20303;-80
2023/10/15 12:17:04;;;;;;;0.10;0.10;;;10.70;99.90;;;;;;4962551;28;20295;-80
2023/10/15 12:19:30;;;;;;;0.10;0.10;;;10.80;99.90;;;;;;4960511;28;20193;-82
2023/10/15 12:21:58;;;;;;;0.10;0.10;;;11.00;99.90;;;;;;4962842;28;20238;-81
2023/10/15 12:24:25;;;;;;;0.10;0.10;;;11.30;99.90;;;;;;4961044;28;20185;-81
2023/10/15 12:26:50;;;;;;;0.10;0.10;;;11.20;99.90;;;;;;4959232;28;20216;-81
2023/10/15 12:29:17;;;;;;;0.10;0.10;;;12.00;99.90;;;;;;4956427;28;20196;-81
2023/10/15 12:31:43;;;;;;;0.00;0.00;;;11.90;99.90;;;;;;4957446;28;20750;-81
2023/10/15 12:34:11;;;;;;;0.10;0.10;;;12.60;99.90;;;;;;4957731;28;20217;-81
2023/10/15 12:36:37;;;;;;;0.00;0.00;;;13.10;99.90;;;;;;4959332;28;20209;-81
2023/10/15 12:39:05;;;;;;;0.10;0.10;;;13.20;99.90;;;;;;4959091;28;20230;-80
2023/10/15 12:41:31;;;;;;;0.10;0.10;;;13.40;99.90;;;;;;4960754;28;20185;-81
2023/10/15 12:44:00;;;;;;;0.10;0.10;;;13.70;99.90;;;;;;4960984;28;20200;-81
2023/10/15 12:46:27;;;;;;;0.03;0.03;;;13.70;99.90;;;;;;4957926;28;20213;-81
2023/10/15 12:48:52;;;;;;;0.00;0.00;;;13.30;99.90;;;;;;4960280;28;20637;-82
2023/10/15 12:51:19;;;;;;;0.10;0.10;;;13.30;99.90;;;;;;4958031;28;20200;-82
2023/10/15 12:53:44;;;;;;;0.10;0.10;;;13.80;99.90;;;;;;4963445;28;20597;-82
2023/10/15 12:56:10;;;;;;;0.03;0.03;;;13.70;99.90;;;;;;4959354;28;20248;-81
2023/10/15 12:58:36;;;;;;;0.10;0.10;;;13.50;99.90;;;;;;4959143;28;20194;-81
2023/10/15 13:01:01;;;;;;;0.10;0.10;;;13.80;99.90;;;;;;4960265;28;20191;-82
2023/10/15 13:03:28;;;;;;;0.03;0.03;;;13.90;99.90;;;;;;4956771;28;20360;-82
2023/10/15 13:05:54;;;;;;;0.10;0.10;;;13.90;99.90;;;;;;4958147;28;20263;-82
2023/10/15 13:08:19;;;;;;;0.10;0.10;;;13.70;99.90;;;;;;4959719;28;20169;-81
2023/10/15 13:10:45;;;;;;;0.07;0.07;;;13.40;99.90;;;;;;4961455;28;20231;-81
2023/10/15 13:13:11;;;;;;;0.00;0.00;;;13.00;99.90;;;;;;4959371;28;20196;-81
2023/10/15 13:15:37;;;;;;;0.10;0.10;;;12.80;99.90;;;;;;4958463;28;20731;-81
2023/10/15 13:18:03;;;;;;;0.10;0.10;;;12.70;99.90;;;;;;4959576;28;20177;-81